sensor_id;sensor_type;location;lat;lon;timestamp;pressure;altitude;pressure_sealevel;temperature;humidity
74722;BME280;63470;49.826;6.740;2022-10-16T00:00:01;99872.04;;;14.33;67.75
74722;BME280;63470;49.826;6.740;2022-10-16T00:02:33;99875.39;;;14.36;67.79
74722;BME280;63470;49.826;6.740;2022-10-16T00:05:04;99878.27;;;14.38;67.79
74722;BME280;63470;49.826;6.740;2022-10-16T00:07:32;99862.52;;;14.42;67.76
74722;BME280;63470;49.826;6.740;2022-10-16T00:10:00;99862.64;;;14.44;67.76
74722;BME280;63470;49.826;6.740;2022-10-16T00:12:30;99867.03;;;14.47;67.77
74722;BME280;63470;49.826;6.740;2022-10-16T00:15:01;99874.70;;;14.50;67.78
74722;BME280;63470;49.826;6.740;2022-10-16T00:17:31;99869.55;;;14.55;67.72
74722;BME280;63470;49.826;6.740;2022-10-16T00:20:02;99870.72;;;14.62;67.62
74722;BME280;63470;49.826;6.740;2022-10-16T00:22:35;99859.64;;;14.70;67.51
74722;BME280;63470;49.826;6.740;2022-10-16T00:25:07;99848.65;;;14.78;67.44
74722;BME280;63470;49.826;6.740;2022-10-16T00:27:33;99848.34;;;14.84;67.43
74722;BME280;63470;49.826;6.740;2022-10-16T00:30:08;99850.00;;;14.88;67.44
74722;BME280;63470;49.826;6.740;2022-10-16T00:32:37;99852.52;;;14.91;67.45
74722;BME280;63470;49.826;6.740;2022-10-16T00:35:07;99855.08;;;14.92;67.47
74722;BME280;63470;49.826;6.740;2022-10-16T00:37:34;99862.73;;;14.94;67.50
74722;BME280;63470;49.826;6.740;2022-10-16T00:40:08;99869.88;;;14.96;67.43
74722;BME280;63470;49.826;6.740;2022-10-16T00:42:38;99872.52;;;14.96;67.50
74722;BME280;63470;49.826;6.740;2022-10-16T00:45:07;99871.80;;;15.00;67.46
74722;BME280;63470;49.826;6.740;2022-10-16T00:47:40;99867.91;;;15.01;67.44
74722;BME280;63470;49.826;6.740;2022-10-16T00:50:18;99864.16;;;15.05;67.40
74722;BME280;63470;49.826;6.740;2022-10-16T00:52:43;99869.80;;;15.10;67.33
74722;BME280;63470;49.826;6.740;2022-10-16T00:55:10;99860.83;;;15.14;67.26
74722;BME280;63470;49.826;6.740;2022-10-16T00:57:43;99863.16;;;15.12;67.17
74722;BME280;63470;49.826;6.740;2022-10-16T01:00:14;99876.53;;;15.10;67.21
74722;BME280;63470;49.826;6.740;2022-10-16T01:02:41;99885.27;;;15.09;67.28
74722;BME280;63470;49.826;6.740;2022-10-16T01:05:14;99889.58;;;15.10;67.26
74722;BME280;63470;49.826;6.740;2022-10-16T01:08:04;99903.36;;;15.13;67.23
74722;BME280;63470;49.826;6.740;2022-10-16T01:10:43;99911.38;;;15.16;67.18
74722;BME280;63470;49.826;6.740;2022-10-16T01:12:58;99903.34;;;15.19;67.12
74722;BME280;63470;49.826;6.740;2022-10-16T01:17:45;99906.08;;;15.25;67.04
74722;BME280;63470;49.826;6.740;2022-10-16T01:23:05;99912.86;;;15.27;66.98
74722;BME280;63470;49.826;6.740;2022-10-16T01:25:19;99919.69;;;15.26;66.99
74722;BME280;63470;49.826;6.740;2022-10-16T01:27:46;99911.95;;;15.26;67.03
74722;BME280;63470;49.826;6.740;2022-10-16T01:30:23;99920.45;;;15.26;67.06
74722;BME280;63470;49.826;6.740;2022-10-16T01:32:52;99913.44;;;15.23;67.07
74722;BME280;63470;49.826;6.740;2022-10-16T01:35:21;99915.62;;;15.20;67.10
74722;BME280;63470;49.826;6.740;2022-10-16T01:37:59;99914.09;;;15.17;67.22
74722;BME280;63470;49.826;6.740;2022-10-16T01:40:16;99911.55;;;15.15;67.28
74722;BME280;63470;49.826;6.740;2022-10-16T01:42:49;99907.06;;;15.15;67.29
74722;BME280;63470;49.826;6.740;2022-10-16T01:45:17;99902.80;;;15.16;67.29
74722;BME280;63470;49.826;6.740;2022-10-16T01:47:50;99905.87;;;15.14;67.29
74722;BME280;63470;49.826;6.740;2022-10-16T01:50:18;99904.36;;;15.13;67.36
74722;BME280;63470;49.826;6.740;2022-10-16T01:52:50;99910.44;;;15.10;67.39
74722;BME280;63470;49.826;6.740;2022-10-16T01:55:21;99911.20;;;15.08;67.45
74722;BME280;63470;49.826;6.740;2022-10-16T01:57:51;99904.47;;;15.05;67.51
74722;BME280;63470;49.826;6.740;2022-10-16T02:00:19;99904.38;;;15.04;67.50
74722;BME280;63470;49.826;6.740;2022-10-16T02:02:50;99915.19;;;15.03;67.55
74722;BME280;63470;49.826;6.740;2022-10-16T02:05:25;99932.73;;;15.03;67.52
74722;BME280;63470;49.826;6.740;2022-10-16T02:07:49;99919.56;;;15.02;67.48
74722;BME280;63470;49.826;6.740;2022-10-16T02:10:18;99904.17;;;15.01;67.47
74722;BME280;63470;49.826;6.740;2022-10-16T02:12:56;99890.42;;;14.97;67.52
74722;BME280;63470;49.826;6.740;2022-10-16T02:15:19;99901.27;;;14.92;67.57
74722;BME280;63470;49.826;6.740;2022-10-16T02:17:49;99918.89;;;14.87;67.68
74722;BME280;63470;49.826;6.740;2022-10-16T02:20:25;99921.47;;;14.85;67.76
74722;BME280;63470;49.826;6.740;2022-10-16T02:22:54;99924.59;;;14.86;67.75
74722;BME280;63470;49.826;6.740;2022-10-16T02:25:25;99921.86;;;14.88;67.65
74722;BME280;63470;49.826;6.740;2022-10-16T02:28:03;99919.44;;;14.89;67.59
74722;BME280;63470;49.826;6.740;2022-10-16T02:30:33;99917.98;;;14.87;67.57
74722;BME280;63470;49.826;6.740;2022-10-16T02:32:56;99914.07;;;14.87;67.56
74722;BME280;63470;49.826;6.740;2022-10-16T02:35:25;99922.52;;;14.86;67.59
74722;BME280;63470;49.826;6.740;2022-10-16T02:37:55;99928.52;;;14.87;67.66
74722;BME280;63470;49.826;6.740;2022-10-16T02:40:29;99924.05;;;14.89;67.67
74722;BME280;63470;49.826;6.740;2022-10-16T02:42:57;99908.51;;;14.89;67.64
74722;BME280;63470;49.826;6.740;2022-10-16T02:45:26;99910.48;;;14.88;67.63
74722;BME280;63470;49.826;6.740;2022-10-16T02:47:59;99914.48;;;14.85;67.65
74722;BME280;63470;49.826;6.740;2022-10-16T02:50:30;99917.68;;;14.83;67.71
74722;BME280;63470;49.826;6.740;2022-10-16T02:53:00;99924.83;;;14.83;67.75
74722;BME280;63470;49.826;6.740;2022-10-16T02:55:28;99928.82;;;14.84;67.74
74722;BME280;63470;49.826;6.740;2022-10-16T02:58:01;99922.67;;;14.87;67.67
74722;BME280;63470;49.826;6.740;2022-10-16T03:00:34;99920.81;;;14.89;67.65
74722;BME280;63470;49.826;6.740;2022-10-16T03:03:00;99927.68;;;14.90;67.65
74722;BME280;63470;49.826;6.740;2022-10-16T03:05:32;99923.70;;;14.94;67.61
74722;BME280;63470;49.826;6.740;2022-10-16T03:08:01;99922.88;;;14.96;67.64
74722;BME280;63470;49.826;6.740;2022-10-16T03:10:36;99926.80;;;14.97;67.64
74722;BME280;63470;49.826;6.740;2022-10-16T03:13:07;99925.24;;;14.99;67.61
74722;BME280;63470;49.826;6.740;2022-10-16T03:15:35;99918.08;;;15.00;67.55
74722;BME280;63470;49.826;6.740;2022-10-16T03:18:03;99915.44;;;15.01;67.53
74722;BME280;63470;49.826;6.740;2022-10-16T03:20:34;99920.97;;;15.02;67.55
74722;BME280;63470;49.826;6.740;2022-10-16T03:23:09;99915.52;;;15.04;67.56
74722;BME280;63470;49.826;6.740;2022-10-16T03:25:34;99921.63;;;15.05;67.56
74722;BME280;63470;49.826;6.740;2022-10-16T03:28:05;99928.20;;;15.04;67.62
74722;BME280;63470;49.826;6.740;2022-10-16T03:30:35;99930.74;;;15.07;67.62
74722;BME280;63470;49.826;6.740;2022-10-16T03:33:06;99929.41;;;15.09;67.57
74722;BME280;63470;49.826;6.740;2022-10-16T03:35:36;99935.62;;;15.10;67.55
74722;BME280;63470;49.826;6.740;2022-10-16T03:38:07;99923.47;;;15.09;67.56
74722;BME280;63470;49.826;6.740;2022-10-16T03:40:37;99923.65;;;15.08;67.56
74722;BME280;63470;49.826;6.740;2022-10-16T03:43:07;99919.61;;;15.09;67.59
74722;BME280;63470;49.826;6.740;2022-10-16T03:45:38;99932.70;;;15.11;67.53
74722;BME280;63470;49.826;6.740;2022-10-16T03:48:11;99929.06;;;15.10;67.55
74722;BME280;63470;49.826;6.740;2022-10-16T03:50:38;99930.54;;;15.11;67.53
74722;BME280;63470;49.826;6.740;2022-10-16T03:53:11;99936.03;;;15.10;67.46
74722;BME280;63470;49.826;6.740;2022-10-16T03:55:50;99945.92;;;15.08;67.42
74722;BME280;63470;49.826;6.740;2022-10-16T03:58:15;99949.23;;;15.05;67.42
74722;BME280;63470;49.826;6.740;2022-10-16T04:00:42;99939.92;;;15.02;67.53
74722;BME280;63470;49.826;6.740;2022-10-16T04:03:14;99942.77;;;15.04;67.60
74722;BME280;63470;49.826;6.740;2022-10-16T04:05:41;99952.84;;;15.05;67.60
74722;BME280;63470;49.826;6.740;2022-10-16T04:08:15;99948.27;;;15.07;67.56
74722;BME280;63470;49.826;6.740;2022-10-16T04:10:47;99946.34;;;15.08;67.50
74722;BME280;63470;49.826;6.740;2022-10-16T04:13:13;99940.36;;;15.08;67.51
74722;BME280;63470;49.826;6.740;2022-10-16T04:15:45;99945.52;;;15.08;67.50
74722;BME280;63470;49.826;6.740;2022-10-16T04:18:21;99956.62;;;15.07;67.59
74722;BME280;63470;49.826;6.740;2022-10-16T04:20:46;99956.67;;;15.07;67.69
74722;BME280;63470;49.826;6.740;2022-10-16T04:23:15;99960.12;;;15.08;67.66
74722;BME280;63470;49.826;6.740;2022-10-16T04:25:45;99962.23;;;15.09;67.66
74722;BME280;63470;49.826;6.740;2022-10-16T04:28:16;99956.83;;;15.12;67.63
74722;BME280;63470;49.826;6.740;2022-10-16T04:30:48;99955.36;;;15.15;67.55
74722;BME280;63470;49.826;6.740;2022-10-16T04:33:17;99955.82;;;15.17;67.53
74722;BME280;63470;49.826;6.740;2022-10-16T04:35:56;99956.66;;;15.17;67.50
74722;BME280;63470;49.826;6.740;2022-10-16T04:38:19;99962.39;;;15.16;67.49
74722;BME280;63470;49.826;6.740;2022-10-16T04:40:49;99960.17;;;15.15;67.50
74722;BME280;63470;49.826;6.740;2022-10-16T04:43:20;99963.83;;;15.15;67.49
74722;BME280;63470;49.826;6.740;2022-10-16T04:45:55;99966.00;;;15.15;67.51
74722;BME280;63470;49.826;6.740;2022-10-16T04:48:25;99980.95;;;15.15;67.52
74722;BME280;63470;49.826;6.740;2022-10-16T04:50:53;99983.92;;;15.17;67.54
74722;BME280;63470;49.826;6.740;2022-10-16T04:53:21;99984.67;;;15.19;67.56
74722;BME280;63470;49.826;6.740;2022-10-16T04:55:51;99992.35;;;15.22;67.56
74722;BME280;63470;49.826;6.740;2022-10-16T04:58:22;99988.77;;;15.24;67.53
74722;BME280;63470;49.826;6.740;2022-10-16T05:00:56;99985.54;;;15.28;67.42
74722;BME280;63470;49.826;6.740;2022-10-16T05:03:23;99992.70;;;15.32;67.35
74722;BME280;63470;49.826;6.740;2022-10-16T05:05:57;99998.19;;;15.32;67.32
74722;BME280;63470;49.826;6.740;2022-10-16T05:08:27;99995.55;;;15.33;67.29
74722;BME280;63470;49.826;6.740;2022-10-16T05:10:57;99991.38;;;15.31;67.18
74722;BME280;63470;49.826;6.740;2022-10-16T05:13:28;99991.52;;;15.28;67.24
74722;BME280;63470;49.826;6.740;2022-10-16T05:16:04;99993.83;;;15.27;67.27
74722;BME280;63470;49.826;6.740;2022-10-16T05:18:31;100005.38;;;15.25;67.30
74722;BME280;63470;49.826;6.740;2022-10-16T05:20:56;100006.38;;;15.22;67.36
74722;BME280;63470;49.826;6.740;2022-10-16T05:23:29;100016.63;;;15.23;67.37
74722;BME280;63470;49.826;6.740;2022-10-16T05:26:01;100014.97;;;15.26;67.32
74722;BME280;63470;49.826;6.740;2022-10-16T05:28:31;100015.70;;;15.24;67.26
74722;BME280;63470;49.826;6.740;2022-10-16T05:31:04;100010.95;;;15.23;67.27
74722;BME280;63470;49.826;6.740;2022-10-16T05:33:34;100012.22;;;15.21;67.31
74722;BME280;63470;49.826;6.740;2022-10-16T05:36:04;100009.02;;;15.19;67.34
74722;BME280;63470;49.826;6.740;2022-10-16T05:38:35;99999.08;;;15.15;67.34
74722;BME280;63470;49.826;6.740;2022-10-16T05:41:04;100001.78;;;15.10;67.38
74722;BME280;63470;49.826;6.740;2022-10-16T05:43:33;100007.73;;;15.04;67.49
74722;BME280;63470;49.826;6.740;2022-10-16T05:46:07;100013.39;;;15.02;67.57
74722;BME280;63470;49.826;6.740;2022-10-16T05:48:44;100018.97;;;15.02;67.59
74722;BME280;63470;49.826;6.740;2022-10-16T05:51:08;100018.33;;;15.03;67.62
74722;BME280;63470;49.826;6.740;2022-10-16T05:53:39;100012.67;;;15.05;67.59
74722;BME280;63470;49.826;6.740;2022-10-16T05:56:10;100016.66;;;15.07;67.55
74722;BME280;63470;49.826;6.740;2022-10-16T05:58:37;100014.27;;;15.09;67.54
74722;BME280;63470;49.826;6.740;2022-10-16T06:01:09;100017.44;;;15.13;67.54
74722;BME280;63470;49.826;6.740;2022-10-16T06:03:38;100023.25;;;15.16;67.55
74722;BME280;63470;49.826;6.740;2022-10-16T06:06:13;100032.67;;;15.19;67.53
74722;BME280;63470;49.826;6.740;2022-10-16T06:08:35;100032.58;;;15.22;67.54
74722;BME280;63470;49.826;6.740;2022-10-16T06:11:08;100033.19;;;15.25;67.51
74722;BME280;63470;49.826;6.740;2022-10-16T06:13:36;100032.02;;;15.28;67.48
74722;BME280;63470;49.826;6.740;2022-10-16T06:16:06;100033.84;;;15.30;67.49
74722;BME280;63470;49.826;6.740;2022-10-16T06:18:36;100028.26;;;15.33;67.46
74722;BME280;63470;49.826;6.740;2022-10-16T06:21:08;100021.36;;;15.35;67.46
74722;BME280;63470;49.826;6.740;2022-10-16T06:23:37;100025.86;;;15.37;67.45
74722;BME280;63470;49.826;6.740;2022-10-16T06:26:09;100034.62;;;15.39;67.42
74722;BME280;63470;49.826;6.740;2022-10-16T06:28:40;100033.89;;;15.42;67.39
74722;BME280;63470;49.826;6.740;2022-10-16T06:31:10;100038.39;;;15.44;67.38
74722;BME280;63470;49.826;6.740;2022-10-16T06:33:44;100035.97;;;15.49;67.30
74722;BME280;63470;49.826;6.740;2022-10-16T06:36:15;100050.86;;;15.51;67.27
74722;BME280;63470;49.826;6.740;2022-10-16T06:38:41;100061.69;;;15.55;67.25
74722;BME280;63470;49.826;6.740;2022-10-16T06:41:12;100064.53;;;15.56;67.26
74722;BME280;63470;49.826;6.740;2022-10-16T06:43:44;100065.55;;;15.58;67.22
74722;BME280;63470;49.826;6.740;2022-10-16T06:46:15;100071.69;;;15.59;67.21
74722;BME280;63470;49.826;6.740;2022-10-16T06:48:44;100084.91;;;15.58;67.20
74722;BME280;63470;49.826;6.740;2022-10-16T06:51:16;100089.55;;;15.57;67.23
74722;BME280;63470;49.826;6.740;2022-10-16T06:53:44;100086.23;;;15.57;67.25
74722;BME280;63470;49.826;6.740;2022-10-16T06:56:19;100078.92;;;15.54;67.23
74722;BME280;63470;49.826;6.740;2022-10-16T06:58:46;100079.89;;;15.55;67.20
74722;BME280;63470;49.826;6.740;2022-10-16T07:01:18;100090.09;;;15.58;67.18
74722;BME280;63470;49.826;6.740;2022-10-16T07:03:50;100096.84;;;15.62;67.16
74722;BME280;63470;49.826;6.740;2022-10-16T07:06:17;100100.24;;;15.64;67.15
74722;BME280;63470;49.826;6.740;2022-10-16T07:08:47;100104.80;;;15.67;67.18
74722;BME280;63470;49.826;6.740;2022-10-16T07:11:19;100107.66;;;15.70;67.15
74722;BME280;63470;49.826;6.740;2022-10-16T07:13:48;100118.20;;;15.73;67.15
74722;BME280;63470;49.826;6.740;2022-10-16T07:16:20;100126.30;;;15.72;67.14
74722;BME280;63470;49.826;6.740;2022-10-16T07:18:53;100133.52;;;15.73;67.20
74722;BME280;63470;49.826;6.740;2022-10-16T07:21:21;100129.97;;;15.74;67.20
74722;BME280;63470;49.826;6.740;2022-10-16T07:23:51;100135.93;;;15.77;67.20
74722;BME280;63470;49.826;6.740;2022-10-16T07:26:23;100141.05;;;15.82;67.20
74722;BME280;63470;49.826;6.740;2022-10-16T07:28:56;100147.90;;;15.90;67.20
74722;BME280;63470;49.826;6.740;2022-10-16T07:31:24;100152.08;;;16.00;67.13
74722;BME280;63470;49.826;6.740;2022-10-16T07:33:52;100160.83;;;16.10;67.01
74722;BME280;63470;49.826;6.740;2022-10-16T07:36:27;100163.58;;;16.16;66.93
74722;BME280;63470;49.826;6.740;2022-10-16T07:38:58;100166.13;;;16.18;66.95
74722;BME280;63470;49.826;6.740;2022-10-16T07:41:27;100167.75;;;16.18;66.94
74722;BME280;63470;49.826;6.740;2022-10-16T07:43:58;100169.89;;;16.21;66.92
74722;BME280;63470;49.826;6.740;2022-10-16T07:46:27;100173.50;;;16.30;66.81
74722;BME280;63470;49.826;6.740;2022-10-16T07:48:59;100173.14;;;16.38;66.71
74722;BME280;63470;49.826;6.740;2022-10-16T07:51:27;100175.39;;;16.48;66.60
74722;BME280;63470;49.826;6.740;2022-10-16T07:53:57;100183.09;;;16.54;66.55
74722;BME280;63470;49.826;6.740;2022-10-16T07:56:30;100191.25;;;16.58;66.52
74722;BME280;63470;49.826;6.740;2022-10-16T07:58:58;100188.84;;;16.57;66.59
74722;BME280;63470;49.826;6.740;2022-10-16T08:01:33;100190.16;;;16.56;66.66
74722;BME280;63470;49.826;6.740;2022-10-16T08:03:59;100198.77;;;16.53;66.70
74722;BME280;63470;49.826;6.740;2022-10-16T08:06:35;100205.58;;;16.49;66.78
74722;BME280;63470;49.826;6.740;2022-10-16T08:09:00;100208.55;;;16.48;66.82
74722;BME280;63470;49.826;6.740;2022-10-16T08:11:30;100213.38;;;16.48;66.88
74722;BME280;63470;49.826;6.740;2022-10-16T08:14:00;100211.99;;;16.50;66.92
74722;BME280;63470;49.826;6.740;2022-10-16T08:16:33;100211.83;;;16.50;66.93
74722;BME280;63470;49.826;6.740;2022-10-16T08:19:02;100212.33;;;16.48;66.88
74722;BME280;63470;49.826;6.740;2022-10-16T08:21:37;100215.58;;;16.49;66.95
74722;BME280;63470;49.826;6.740;2022-10-16T08:24:03;100219.99;;;16.50;67.00
74722;BME280;63470;49.826;6.740;2022-10-16T08:26:33;100221.75;;;16.50;67.00
74722;BME280;63470;49.826;6.740;2022-10-16T08:29:06;100217.17;;;16.49;66.96
74722;BME280;63470;49.826;6.740;2022-10-16T08:31:38;100222.52;;;16.51;66.92
74722;BME280;63470;49.826;6.740;2022-10-16T08:34:07;100231.17;;;16.57;66.88
74722;BME280;63470;49.826;6.740;2022-10-16T08:36:39;100238.70;;;16.67;66.73
74722;BME280;63470;49.826;6.740;2022-10-16T08:39:06;100244.66;;;16.76;66.56
74722;BME280;63470;49.826;6.740;2022-10-16T08:49:12;100245.38;;;17.31;65.99
74722;BME280;63470;49.826;6.740;2022-10-16T08:51:43;100244.43;;;17.33;66.08
74722;BME280;63470;49.826;6.740;2022-10-16T08:56:39;100257.93;;;17.46;66.17
74722;BME280;63470;49.826;6.740;2022-10-16T08:59:11;100256.03;;;17.52;66.18
74722;BME280;63470;49.826;6.740;2022-10-16T09:01:45;100255.02;;;17.59;66.18
74722;BME280;63470;49.826;6.740;2022-10-16T09:04:28;100254.20;;;17.78;66.02
74722;BME280;63470;49.826;6.740;2022-10-16T09:06:50;100253.23;;;18.01;65.78
74722;BME280;63470;49.826;6.740;2022-10-16T09:11:59;100250.47;;;18.29;65.60
74722;BME280;63470;49.826;6.740;2022-10-16T09:17:00;100241.70;;;18.47;65.53
74722;BME280;63470;49.826;6.740;2022-10-16T09:19:27;100236.52;;;18.60;65.33
74722;BME280;63470;49.826;6.740;2022-10-16T09:21:46;100251.06;;;18.56;65.41
74722;BME280;63470;49.826;6.740;2022-10-16T09:24:16;100258.35;;;18.48;65.63
74722;BME280;63470;49.826;6.740;2022-10-16T09:26:48;100269.12;;;18.46;65.74
74722;BME280;63470;49.826;6.740;2022-10-16T09:29:16;100272.20;;;18.44;65.81
74722;BME280;63470;49.826;6.740;2022-10-16T09:31:45;100272.88;;;18.51;65.75
74722;BME280;63470;49.826;6.740;2022-10-16T09:34:34;100275.34;;;18.55;65.69
74722;BME280;63470;49.826;6.740;2022-10-16T09:36:48;100274.83;;;18.66;65.62
74722;BME280;63470;49.826;6.740;2022-10-16T09:39:16;100270.95;;;18.80;65.41
74722;BME280;63470;49.826;6.740;2022-10-16T09:41:47;100273.91;;;18.98;65.30
74722;BME280;63470;49.826;6.740;2022-10-16T09:44:31;100272.89;;;19.27;65.17
74722;BME280;63470;49.826;6.740;2022-10-16T09:46:47;100265.89;;;19.49;64.90
74722;BME280;63470;49.826;6.740;2022-10-16T09:49:23;100262.45;;;19.52;64.86
74722;BME280;63470;49.826;6.740;2022-10-16T09:51:51;100254.77;;;19.49;65.02
74722;BME280;63470;49.826;6.740;2022-10-16T09:54:20;100248.20;;;19.46;65.10
74722;BME280;63470;49.826;6.740;2022-10-16T09:57:06;100239.84;;;19.46;65.17
74722;BME280;63470;49.826;6.740;2022-10-16T09:59:22;100234.52;;;19.49;65.07
74722;BME280;63470;49.826;6.740;2022-10-16T10:01:53;100242.49;;;19.63;64.91
74722;BME280;63470;49.826;6.740;2022-10-16T10:04:25;100247.91;;;19.64;64.97
74722;BME280;63470;49.826;6.740;2022-10-16T10:06:56;100250.27;;;19.61;65.06
74722;BME280;63470;49.826;6.740;2022-10-16T10:09:27;100245.86;;;19.66;65.07
74722;BME280;63470;49.826;6.740;2022-10-16T10:12:01;100242.86;;;19.80;64.88
74722;BME280;63470;49.826;6.740;2022-10-16T10:14:30;100247.41;;;19.85;64.89
74722;BME280;63470;49.826;6.740;2022-10-16T10:17:12;100251.73;;;20.00;64.88
74722;BME280;63470;49.826;6.740;2022-10-16T10:19:30;100254.62;;;20.15;64.78
74722;BME280;63470;49.826;6.740;2022-10-16T10:21:55;100258.31;;;20.39;64.49
74722;BME280;63470;49.826;6.740;2022-10-16T10:24:26;100258.00;;;20.57;64.47
74722;BME280;63470;49.826;6.740;2022-10-16T10:27:05;100255.23;;;20.73;64.44
74722;BME280;63470;49.826;6.740;2022-10-16T10:29:53;100250.63;;;20.61;64.61
74722;BME280;63470;49.826;6.740;2022-10-16T10:32:08;100245.45;;;20.30;65.04
74722;BME280;63470;49.826;6.740;2022-10-16T10:39:40;100245.36;;;20.19;65.41
74722;BME280;63470;49.826;6.740;2022-10-16T10:42:19;100247.38;;;20.11;65.57
74722;BME280;63470;49.826;6.740;2022-10-16T10:45:00;100257.05;;;20.16;65.51
74722;BME280;63470;49.826;6.740;2022-10-16T11:07:17;100256.86;;;20.18;65.33
74722;BME280;63470;49.826;6.740;2022-10-16T11:09:42;100261.44;;;20.05;65.49
74722;BME280;63470;49.826;6.740;2022-10-16T11:12:09;100259.08;;;19.93;65.75
74722;BME280;63470;49.826;6.740;2022-10-16T11:14:58;100256.41;;;19.87;65.82
74722;BME280;63470;49.826;6.740;2022-10-16T11:17:25;100260.36;;;19.87;65.74
74722;BME280;63470;49.826;6.740;2022-10-16T11:19:46;100265.52;;;19.90;65.76
74722;BME280;63470;49.826;6.740;2022-10-16T11:24:42;100268.50;;;19.88;66.00
74722;BME280;63470;49.826;6.740;2022-10-16T11:27:08;100265.92;;;19.89;65.91
74722;BME280;63470;49.826;6.740;2022-10-16T11:29:49;100262.06;;;19.97;65.79
74722;BME280;63470;49.826;6.740;2022-10-16T11:32:16;100269.89;;;20.02;65.71
74722;BME280;63470;49.826;6.740;2022-10-16T11:34:57;100268.62;;;19.96;65.72
74722;BME280;63470;49.826;6.740;2022-10-16T11:37:22;100266.73;;;19.85;65.80
74722;BME280;63470;49.826;6.740;2022-10-16T11:39:38;100271.62;;;19.81;65.87
74722;BME280;63470;49.826;6.740;2022-10-16T11:42:13;100271.33;;;19.80;65.94
74722;BME280;63470;49.826;6.740;2022-10-16T11:47:34;100269.80;;;19.93;65.80
74722;BME280;63470;49.826;6.740;2022-10-16T11:49:40;100273.72;;;19.98;65.71
74722;BME280;63470;49.826;6.740;2022-10-16T11:52:25;100267.52;;;20.01;65.69
74722;BME280;63470;49.826;6.740;2022-10-16T11:54:56;100264.91;;;20.06;65.64
74722;BME280;63470;49.826;6.740;2022-10-16T11:57:25;100265.93;;;20.10;65.59
74722;BME280;63470;49.826;6.740;2022-10-16T11:59:50;100266.25;;;20.18;65.47
74722;BME280;63470;49.826;6.740;2022-10-16T12:02:30;100269.08;;;20.19;65.33
74722;BME280;63470;49.826;6.740;2022-10-16T12:04:51;100267.73;;;20.22;65.35
74722;BME280;63470;49.826;6.740;2022-10-16T12:07:15;100271.05;;;20.24;65.30
74722;BME280;63470;49.826;6.740;2022-10-16T12:09:43;100270.41;;;20.39;65.24
74722;BME280;63470;49.826;6.740;2022-10-16T12:12:38;100272.26;;;20.55;65.01
74722;BME280;63470;49.826;6.740;2022-10-16T12:14:46;100268.48;;;20.70;64.91
74722;BME280;63470;49.826;6.740;2022-10-16T12:17:26;100270.26;;;20.87;64.71
74722;BME280;63470;49.826;6.740;2022-10-16T12:22:18;100254.76;;;20.90;64.67
74722;BME280;63470;49.826;6.740;2022-10-16T12:24:51;100254.10;;;20.85;64.87
74722;BME280;63470;49.826;6.740;2022-10-16T12:27:29;100249.12;;;20.84;64.96
74722;BME280;63470;49.826;6.740;2022-10-16T12:29:59;100250.55;;;20.74;65.14
74722;BME280;63470;49.826;6.740;2022-10-16T12:32:30;100249.57;;;20.69;65.23
74722;BME280;63470;49.826;6.740;2022-10-16T12:34:48;100251.08;;;20.64;65.41
74722;BME280;63470;49.826;6.740;2022-10-16T12:37:22;100251.94;;;20.63;65.49
74722;BME280;63470;49.826;6.740;2022-10-16T12:39:53;100250.48;;;20.58;65.59
74722;BME280;63470;49.826;6.740;2022-10-16T12:42:30;100250.61;;;20.57;65.60
74722;BME280;63470;49.826;6.740;2022-10-16T12:44:50;100251.05;;;20.51;65.55
74722;BME280;63470;49.826;6.740;2022-10-16T12:47:36;100258.34;;;20.49;65.57
74722;BME280;63470;49.826;6.740;2022-10-16T12:49:55;100263.74;;;20.53;65.47
74722;BME280;63470;49.826;6.740;2022-10-16T12:52:25;100266.11;;;20.59;65.42
74722;BME280;63470;49.826;6.740;2022-10-16T12:54:56;100260.29;;;20.61;65.42
74722;BME280;63470;49.826;6.740;2022-10-16T13:00:11;100254.49;;;20.60;65.34
74722;BME280;63470;49.826;6.740;2022-10-16T13:05:30;100251.20;;;20.40;65.43
74722;BME280;63470;49.826;6.740;2022-10-16T13:15:06;100242.97;;;20.25;65.72
74722;BME280;63470;49.826;6.740;2022-10-16T13:17:36;100248.53;;;20.27;65.75
74722;BME280;63470;49.826;6.740;2022-10-16T13:22:44;100250.31;;;20.49;65.33
74722;BME280;63470;49.826;6.740;2022-10-16T13:30:16;100253.55;;;21.09;64.43
74722;BME280;63470;49.826;6.740;2022-10-16T13:32:31;100248.47;;;21.16;64.32
74722;BME280;63470;49.826;6.740;2022-10-16T13:35:01;100247.16;;;21.22;64.26
74722;BME280;63470;49.826;6.740;2022-10-16T13:37:30;100243.55;;;21.23;64.39
74722;BME280;63470;49.826;6.740;2022-10-16T13:40:18;100246.21;;;21.21;64.47
74722;BME280;63470;49.826;6.740;2022-10-16T13:42:32;100246.81;;;21.15;64.68
74722;BME280;63470;49.826;6.740;2022-10-16T13:45:02;100244.80;;;21.05;64.82
74722;BME280;63470;49.826;6.740;2022-10-16T13:47:39;100240.98;;;20.95;64.99
74722;BME280;63470;49.826;6.740;2022-10-16T13:50:08;100239.22;;;20.81;65.18
74722;BME280;63470;49.826;6.740;2022-10-16T13:52:34;100237.03;;;20.77;65.26
74722;BME280;63470;49.826;6.740;2022-10-16T13:55:18;100236.59;;;20.79;65.20
74722;BME280;63470;49.826;6.740;2022-10-16T13:57:35;100239.92;;;20.74;65.26
74722;BME280;63470;49.826;6.740;2022-10-16T14:00:23;100240.92;;;20.68;65.32
74722;BME280;63470;49.826;6.740;2022-10-16T14:02:39;100237.38;;;20.57;65.46
74722;BME280;63470;49.826;6.740;2022-10-16T14:05:08;100235.72;;;20.43;65.56
74722;BME280;63470;49.826;6.740;2022-10-16T14:07:40;100238.47;;;20.26;65.74
74722;BME280;63470;49.826;6.740;2022-10-16T14:10:27;100239.95;;;20.10;65.97
74722;BME280;63470;49.826;6.740;2022-10-16T14:12:41;100237.72;;;20.00;66.12
74722;BME280;63470;49.826;6.740;2022-10-16T14:15:21;100238.10;;;19.91;66.25
74722;BME280;63470;49.826;6.740;2022-10-16T14:17:45;100239.06;;;19.84;66.28
74722;BME280;63470;49.826;6.740;2022-10-16T14:20:15;100241.14;;;19.78;66.27
74722;BME280;63470;49.826;6.740;2022-10-16T14:22:42;100242.69;;;19.76;66.21